sensor_id;sensor_type;location;lat;lon;timestamp;P1;P2;P0
56360;PMS7003;42611;51.132;13.588;2023-05-29T00:03:01;20.0;18.7;
56360;PMS7003;42611;51.132;13.588;2023-05-29T00:08:02;21.0;19.1;
56360;PMS7003;42611;51.132;13.588;2023-05-29T00:13:02;20.0;18.4;
56360;PMS7003;42611;51.132;13.588;2023-05-29T00:18:02;19.7;17.8;
56360;PMS7003;42611;51.132;13.588;2023-05-29T00:23:01;21.7;20.2;
56360;PMS7003;42611;51.132;13.588;2023-05-29T00:28:01;22.6;21.2;
56360;PMS7003;42611;51.132;13.588;2023-05-29T00:33:01;23.2;22.1;
56360;PMS7003;42611;51.132;13.588;2023-05-29T00:38:01;24.8;23.4;
56360;PMS7003;42611;51.132;13.588;2023-05-29T00:43:01;25.3;24.6;
56360;PMS7003;42611;51.132;13.588;2023-05-29T00:54:02;24.6;23.7;
56360;PMS7003;42611;51.132;13.588;2023-05-29T00:59:02;24.7;23.6;
56360;PMS7003;42611;51.132;13.588;2023-05-29T01:04:01;25.0;23.8;
56360;PMS7003;42611;51.132;13.588;2023-05-29T01:09:02;25.2;23.6;
56360;PMS7003;42611;51.132;13.588;2023-05-29T01:14:03;23.9;22.7;
56360;PMS7003;42611;51.132;13.588;2023-05-29T01:19:08;24.2;23.2;
56360;PMS7003;42611;51.132;13.588;2023-05-29T01:24:13;23.2;22.2;
56360;PMS7003;42611;51.132;13.588;2023-05-29T01:29:02;22.2;21.3;
56360;PMS7003;42611;51.132;13.588;2023-05-29T01:34:01;22.1;21.6;
56360;PMS7003;42611;51.132;13.588;2023-05-29T01:39:01;22.2;21.8;
56360;PMS7003;42611;51.132;13.588;2023-05-29T01:44:03;21.8;21.2;
56360;PMS7003;42611;51.132;13.588;2023-05-29T01:49:01;22.4;21.7;
56360;PMS7003;42611;51.132;13.588;2023-05-29T01:54:01;22.5;21.9;
56360;PMS7003;42611;51.132;13.588;2023-05-29T01:59:03;23.2;21.6;
56360;PMS7003;42611;51.132;13.588;2023-05-29T02:04:01;23.0;21.2;
56360;PMS7003;42611;51.132;13.588;2023-05-29T02:09:01;25.0;22.7;
56360;PMS7003;42611;51.132;13.588;2023-05-29T02:14:02;26.4;24.1;
56360;PMS7003;42611;51.132;13.588;2023-05-29T02:19:01;27.0;24.5;
56360;PMS7003;42611;51.132;13.588;2023-05-29T02:24:02;27.9;25.9;
56360;PMS7003;42611;51.132;13.588;2023-05-29T02:29:01;29.9;27.5;
56360;PMS7003;42611;51.132;13.588;2023-05-29T02:34:01;28.0;26.3;
56360;PMS7003;42611;51.132;13.588;2023-05-29T02:39:01;28.5;26.2;
56360;PMS7003;42611;51.132;13.588;2023-05-29T02:44:01;28.8;26.8;
56360;PMS7003;42611;51.132;13.588;2023-05-29T02:49:01;28.0;26.5;
56360;PMS7003;42611;51.132;13.588;2023-05-29T02:54:01;26.8;25.6;
56360;PMS7003;42611;51.132;13.588;2023-05-29T02:59:01;27.2;25.6;
56360;PMS7003;42611;51.132;13.588;2023-05-29T03:04:01;25.7;24.7;
56360;PMS7003;42611;51.132;13.588;2023-05-29T03:09:02;25.3;24.1;
56360;PMS7003;42611;51.132;13.588;2023-05-29T03:14:01;25.4;24.3;
56360;PMS7003;42611;51.132;13.588;2023-05-29T03:19:01;26.7;25.1;
56360;PMS7003;42611;51.132;13.588;2023-05-29T03:24:01;26.6;25.2;
56360;PMS7003;42611;51.132;13.588;2023-05-29T03:29:01;27.0;25.6;
56360;PMS7003;42611;51.132;13.588;2023-05-29T03:34:01;28.0;26.6;
56360;PMS7003;42611;51.132;13.588;2023-05-29T03:39:01;29.3;26.7;
56360;PMS7003;42611;51.132;13.588;2023-05-29T03:44:01;28.5;26.6;
56360;PMS7003;42611;51.132;13.588;2023-05-29T03:49:01;29.6;27.8;
56360;PMS7003;42611;51.132;13.588;2023-05-29T03:54:01;29.3;27.7;
56360;PMS7003;42611;51.132;13.588;2023-05-29T04:04:01;26.9;26.0;
56360;PMS7003;42611;51.132;13.588;2023-05-29T04:09:01;27.1;26.0;
56360;PMS7003;42611;51.132;13.588;2023-05-29T04:14:01;26.0;25.0;
56360;PMS7003;42611;51.132;13.588;2023-05-29T04:19:01;25.3;24.4;
56360;PMS7003;42611;51.132;13.588;2023-05-29T04:24:01;25.1;24.6;
56360;PMS7003;42611;51.132;13.588;2023-05-29T04:29:01;24.7;24.0;
56360;PMS7003;42611;51.132;13.588;2023-05-29T04:34:02;23.9;22.7;
56360;PMS7003;42611;51.132;13.588;2023-05-29T04:39:01;23.2;21.8;
56360;PMS7003;42611;51.132;13.588;2023-05-29T04:49:01;21.4;19.5;
56360;PMS7003;42611;51.132;13.588;2023-05-29T04:54:01;20.2;18.5;
56360;PMS7003;42611;51.132;13.588;2023-05-29T04:59:01;19.0;18.0;
56360;PMS7003;42611;51.132;13.588;2023-05-29T05:04:02;19.2;18.3;
56360;PMS7003;42611;51.132;13.588;2023-05-29T05:09:01;17.9;17.0;
56360;PMS7003;42611;51.132;13.588;2023-05-29T05:14:02;18.1;17.0;
56360;PMS7003;42611;51.132;13.588;2023-05-29T05:19:01;18.6;17.3;
56360;PMS7003;42611;51.132;13.588;2023-05-29T05:24:01;18.4;16.9;
56360;PMS7003;42611;51.132;13.588;2023-05-29T05:29:01;18.1;16.4;
56360;PMS7003;42611;51.132;13.588;2023-05-29T05:34:02;20.0;18.2;
56360;PMS7003;42611;51.132;13.588;2023-05-29T05:39:02;20.4;19.2;
56360;PMS7003;42611;51.132;13.588;2023-05-29T05:44:01;21.2;20.1;
56360;PMS7003;42611;51.132;13.588;2023-05-29T05:49:02;21.8;20.7;
56360;PMS7003;42611;51.132;13.588;2023-05-29T05:54:01;22.0;21.2;
56360;PMS7003;42611;51.132;13.588;2023-05-29T06:04:02;21.5;21.2;
56360;PMS7003;42611;51.132;13.588;2023-05-29T06:09:01;22.1;21.6;
56360;PMS7003;42611;51.132;13.588;2023-05-29T06:14:01;22.5;22.1;
56360;PMS7003;42611;51.132;13.588;2023-05-29T06:19:01;22.6;22.1;
56360;PMS7003;42611;51.132;13.588;2023-05-29T06:24:02;22.4;21.7;
56360;PMS7003;42611;51.132;13.588;2023-05-29T06:29:01;22.8;21.8;
56360;PMS7003;42611;51.132;13.588;2023-05-29T06:34:01;21.5;20.7;
56360;PMS7003;42611;51.132;13.588;2023-05-29T06:39:01;20.8;19.6;
56360;PMS7003;42611;51.132;13.588;2023-05-29T06:44:01;20.3;19.4;
56360;PMS7003;42611;51.132;13.588;2023-05-29T06:49:06;20.0;19.0;
56360;PMS7003;42611;51.132;13.588;2023-05-29T06:54:01;19.4;18.8;
56360;PMS7003;42611;51.132;13.588;2023-05-29T07:04:02;20.2;19.8;
56360;PMS7003;42611;51.132;13.588;2023-05-29T07:09:01;20.0;19.7;
56360;PMS7003;42611;51.132;13.588;2023-05-29T07:14:01;19.1;18.9;
56360;PMS7003;42611;51.132;13.588;2023-05-29T07:19:01;18.1;17.9;
56360;PMS7003;42611;51.132;13.588;2023-05-29T07:24:01;17.7;17.4;
56360;PMS7003;42611;51.132;13.588;2023-05-29T07:29:06;16.4;16.2;
56360;PMS7003;42611;51.132;13.588;2023-05-29T07:34:01;16.0;15.7;
56360;PMS7003;42611;51.132;13.588;2023-05-29T07:39:01;15.9;15.5;
56360;PMS7003;42611;51.132;13.588;2023-05-29T07:44:01;16.3;15.9;
56360;PMS7003;42611;51.132;13.588;2023-05-29T07:49:01;16.4;16.1;
56360;PMS7003;42611;51.132;13.588;2023-05-29T07:54:02;17.1;16.8;
56360;PMS7003;42611;51.132;13.588;2023-05-29T07:59:01;17.4;17.0;
56360;PMS7003;42611;51.132;13.588;2023-05-29T08:04:02;17.7;17.0;
56360;PMS7003;42611;51.132;13.588;2023-05-29T08:09:02;18.8;17.8;
56360;PMS7003;42611;51.132;13.588;2023-05-29T08:14:07;19.1;18.0;
56360;PMS7003;42611;51.132;13.588;2023-05-29T08:19:03;18.3;17.2;
56360;PMS7003;42611;51.132;13.588;2023-05-29T08:24:02;17.8;16.4;
56360;PMS7003;42611;51.132;13.588;2023-05-29T08:29:01;16.7;15.8;
56360;PMS7003;42611;51.132;13.588;2023-05-29T08:34:01;14.6;13.8;
56360;PMS7003;42611;51.132;13.588;2023-05-29T08:39:01;13.2;12.4;
56360;PMS7003;42611;51.132;13.588;2023-05-29T08:44:02;11.6;10.8;
56360;PMS7003;42611;51.132;13.588;2023-05-29T08:49:01;11.8;11.0;
56360;PMS7003;42611;51.132;13.588;2023-05-29T08:54:02;12.6;11.7;
56360;PMS7003;42611;51.132;13.588;2023-05-29T08:59:21;12.9;12.2;
56360;PMS7003;42611;51.132;13.588;2023-05-29T09:04:02;13.9;13.2;
56360;PMS7003;42611;51.132;13.588;2023-05-29T09:09:01;15.6;15.0;
56360;PMS7003;42611;51.132;13.588;2023-05-29T09:14:02;15.3;15.2;
56360;PMS7003;42611;51.132;13.588;2023-05-29T09:19:05;14.3;14.3;
56360;PMS7003;42611;51.132;13.588;2023-05-29T09:24:03;14.6;14.6;
56360;PMS7003;42611;51.132;13.588;2023-05-29T09:29:03;13.4;13.4;
56360;PMS7003;42611;51.132;13.588;2023-05-29T09:55:02;9.4;8.6;
56360;PMS7003;42611;51.132;13.588;2023-05-29T10:00:02;10.5;9.3;
56360;PMS7003;42611;51.132;13.588;2023-05-29T10:05:01;9.5;8.7;
56360;PMS7003;42611;51.132;13.588;2023-05-29T10:10:02;8.9;8.3;
56360;PMS7003;42611;51.132;13.588;2023-05-29T10:15:03;8.7;8.0;
56360;PMS7003;42611;51.132;13.588;2023-05-29T10:20:02;8.5;7.8;
56360;PMS7003;42611;51.132;13.588;2023-05-29T10:25:02;7.5;7.2;
56360;PMS7003;42611;51.132;13.588;2023-05-29T10:30:10;7.4;7.1;
56360;PMS7003;42611;51.132;13.588;2023-05-29T10:40:05;7.6;7.1;
56360;PMS7003;42611;51.132;13.588;2023-05-29T10:45:01;7.3;6.7;
56360;PMS7003;42611;51.132;13.588;2023-05-29T10:50:02;7.1;6.4;
56360;PMS7003;42611;51.132;13.588;2023-05-29T10:55:01;7.3;6.6;
56360;PMS7003;42611;51.132;13.588;2023-05-29T11:00:05;7.8;6.9;
56360;PMS7003;42611;51.132;13.588;2023-05-29T11:05:33;7.7;6.9;
56360;PMS7003;42611;51.132;13.588;2023-05-29T11:15:05;8.2;7.6;
56360;PMS7003;42611;51.132;13.588;2023-05-29T11:20:04;7.7;7.1;
56360;PMS7003;42611;51.132;13.588;2023-05-29T11:25:01;7.3;7.0;
56360;PMS7003;42611;51.132;13.588;2023-05-29T11:30:02;6.8;6.2;
56360;PMS7003;42611;51.132;13.588;2023-05-29T11:35:08;6.6;6.1;
56360;PMS7003;42611;51.132;13.588;2023-05-29T11:40:04;6.5;6.0;
56360;PMS7003;42611;51.132;13.588;2023-05-29T11:45:18;6.9;6.2;
56360;PMS7003;42611;51.132;13.588;2023-05-29T11:50:17;6.1;5.3;
56360;PMS7003;42611;51.132;13.588;2023-05-29T11:55:09;6.2;5.8;
56360;PMS7003;42611;51.132;13.588;2023-05-29T12:00:02;6.7;5.7;
56360;PMS7003;42611;51.132;13.588;2023-05-29T12:05:02;6.5;5.1;
56360;PMS7003;42611;51.132;13.588;2023-05-29T12:10:09;6.6;5.1;
56360;PMS7003;42611;51.132;13.588;2023-05-29T12:15:02;7.4;5.9;
56360;PMS7003;42611;51.132;13.588;2023-05-29T12:25:17;6.5;5.4;
56360;PMS7003;42611;51.132;13.588;2023-05-29T12:30:02;6.5;5.8;
56360;PMS7003;42611;51.132;13.588;2023-05-29T12:35:09;6.8;6.2;
56360;PMS7003;42611;51.132;13.588;2023-05-29T12:40:11;7.1;6.5;
56360;PMS7003;42611;51.132;13.588;2023-05-29T12:45:02;7.0;6.6;
56360;PMS7003;42611;51.132;13.588;2023-05-29T12:50:18;7.5;7.2;
56360;PMS7003;42611;51.132;13.588;2023-05-29T12:55:01;8.0;7.7;
56360;PMS7003;42611;51.132;13.588;2023-05-29T13:00:02;7.4;7.4;
56360;PMS7003;42611;51.132;13.588;2023-05-29T13:05:01;6.9;6.9;
56360;PMS7003;42611;51.132;13.588;2023-05-29T13:10:01;6.7;6.7;
56360;PMS7003;42611;51.132;13.588;2023-05-29T13:15:02;6.9;6.9;
56360;PMS7003;42611;51.132;13.588;2023-05-29T13:20:02;6.3;6.3;
56360;PMS7003;42611;51.132;13.588;2023-05-29T13:25:02;6.2;6.2;
56360;PMS7003;42611;51.132;13.588;2023-05-29T13:30:03;6.8;6.5;
56360;PMS7003;42611;51.132;13.588;2023-05-29T13:35:01;6.9;6.6;
56360;PMS7003;42611;51.132;13.588;2023-05-29T13:40:01;6.1;5.8;
56360;PMS7003;42611;51.132;13.588;2023-05-29T13:45:04;5.9;5.6;
56360;PMS7003;42611;51.132;13.588;2023-05-29T13:50:01;5.5;5.3;
56360;PMS7003;42611;51.132;13.588;2023-05-29T13:55:01;5.4;5.1;
56360;PMS7003;42611;51.132;13.588;2023-05-29T14:00:02;5.7;5.3;
56360;PMS7003;42611;51.132;13.588;2023-05-29T14:05:01;6.1;5.7;
56360;PMS7003;42611;51.132;13.588;2023-05-29T14:10:02;6.3;5.9;
56360;PMS7003;42611;51.132;13.588;2023-05-29T14:15:02;6.3;5.9;
56360;PMS7003;42611;51.132;13.588;2023-05-29T14:20:01;6.1;6.0;
56360;PMS7003;42611;51.132;13.588;2023-05-29T14:25:01;5.8;5.8;
56360;PMS7003;42611;51.132;13.588;2023-05-29T14:30:03;6.0;5.9;
56360;PMS7003;42611;51.132;13.588;2023-05-29T14:35:01;5.9;5.9;
56360;PMS7003;42611;51.132;13.588;2023-05-29T14:40:01;6.3;6.3;
56360;PMS7003;42611;51.132;13.588;2023-05-29T14:45:02;6.2;6.1;
56360;PMS7003;42611;51.132;13.588;2023-05-29T14:50:01;6.5;6.4;
56360;PMS7003;42611;51.132;13.588;2023-05-29T15:00:03;6.9;6.5;
56360;PMS7003;42611;51.132;13.588;2023-05-29T15:05:01;7.1;6.7;
56360;PMS7003;42611;51.132;13.588;2023-05-29T15:10:02;7.0;6.7;
56360;PMS7003;42611;51.132;13.588;2023-05-29T15:15:02;6.8;6.5;
56360;PMS7003;42611;51.132;13.588;2023-05-29T15:25:01;6.3;6.1;
56360;PMS7003;42611;51.132;13.588;2023-05-29T15:30:17;6.3;6.1;
56360;PMS7003;42611;51.132;13.588;2023-05-29T15:35:01;6.6;6.3;
56360;PMS7003;42611;51.132;13.588;2023-05-29T15:40:01;6.7;6.1;
56360;PMS7003;42611;51.132;13.588;2023-05-29T15:45:03;6.4;6.0;
56360;PMS7003;42611;51.132;13.588;2023-05-29T15:50:01;6.9;6.5;
56360;PMS7003;42611;51.132;13.588;2023-05-29T15:55:04;7.1;6.7;
56360;PMS7003;42611;51.132;13.588;2023-05-29T16:00:03;6.8;6.6;
56360;PMS7003;42611;51.132;13.588;2023-05-29T16:05:08;7.2;7.2;
56360;PMS7003;42611;51.132;13.588;2023-05-29T16:10:01;7.8;7.7;
56360;PMS7003;42611;51.132;13.588;2023-05-29T16:15:02;7.5;7.4;
56360;PMS7003;42611;51.132;13.588;2023-05-29T16:20:02;7.9;7.2;
56360;PMS7003;42611;51.132;13.588;2023-05-29T16:25:02;7.5;6.8;
56360;PMS7003;42611;51.132;13.588;2023-05-29T16:30:02;7.0;6.3;
56360;PMS7003;42611;51.132;13.588;2023-05-29T16:35:02;7.3;6.4;
56360;PMS7003;42611;51.132;13.588;2023-05-29T16:45:02;7.4;6.6;
56360;PMS7003;42611;51.132;13.588;2023-05-29T16:50:01;8.0;7.1;
56360;PMS7003;42611;51.132;13.588;2023-05-29T16:55:07;8.2;7.3;
56360;PMS7003;42611;51.132;13.588;2023-05-29T17:00:02;7.6;6.8;
56360;PMS7003;42611;51.132;13.588;2023-05-29T17:05:01;7.9;7.1;
56360;PMS7003;42611;51.132;13.588;2023-05-29T17:10:01;6.8;6.6;
56360;PMS7003;42611;51.132;13.588;2023-05-29T17:15:02;6.8;6.6;
56360;PMS7003;42611;51.132;13.588;2023-05-29T17:25:01;6.9;6.9;
56360;PMS7003;42611;51.132;13.588;2023-05-29T17:30:02;6.7;6.7;
56360;PMS7003;42611;51.132;13.588;2023-05-29T17:35:01;7.4;7.3;
56360;PMS7003;42611;51.132;13.588;2023-05-29T17:40:01;7.6;7.5;
56360;PMS7003;42611;51.132;13.588;2023-05-29T17:45:02;7.4;7.4;
56360;PMS7003;42611;51.132;13.588;2023-05-29T17:50:01;7.6;7.6;
56360;PMS7003;42611;51.132;13.588;2023-05-29T18:00:02;7.6;7.6;
56360;PMS7003;42611;51.132;13.588;2023-05-29T18:05:01;7.4;7.3;
56360;PMS7003;42611;51.132;13.588;2023-05-29T18:10:01;7.6;7.4;
56360;PMS7003;42611;51.132;13.588;2023-05-29T18:15:02;7.2;7.0;
56360;PMS7003;42611;51.132;13.588;2023-05-29T18:20:01;6.5;6.3;
56360;PMS7003;42611;51.132;13.588;2023-05-29T18:25:02;5.9;5.7;
56360;PMS7003;42611;51.132;13.588;2023-05-29T18:30:02;6.2;5.9;
56360;PMS7003;42611;51.132;13.588;2023-05-29T18:40:01;6.6;5.9;
56360;PMS7003;42611;51.132;13.588;2023-05-29T18:45:01;7.7;6.6;
56360;PMS7003;42611;51.132;13.588;2023-05-29T18:50:01;8.2;6.6;
56360;PMS7003;42611;51.132;13.588;2023-05-29T18:55:02;8.0;6.6;
56360;PMS7003;42611;51.132;13.588;2023-05-29T19:00:01;7.7;6.5;
56360;PMS7003;42611;51.132;13.588;2023-05-29T19:05:01;7.6;6.3;
56360;PMS7003;42611;51.132;13.588;2023-05-29T19:10:01;6.8;5.8;
56360;PMS7003;42611;51.132;13.588;2023-05-29T19:15:02;6.9;6.5;
56360;PMS7003;42611;51.132;13.588;2023-05-29T19:20:03;6.8;6.4;
56360;PMS7003;42611;51.132;13.588;2023-05-29T19:30:02;6.4;6.2;
56360;PMS7003;42611;51.132;13.588;2023-05-29T19:35:01;7.1;7.0;
56360;PMS7003;42611;51.132;13.588;2023-05-29T19:40:03;6.6;6.5;
56360;PMS7003;42611;51.132;13.588;2023-05-29T19:45:01;6.3;6.1;
56360;PMS7003;42611;51.132;13.588;2023-05-29T19:50:01;6.2;6.0;
56360;PMS7003;42611;51.132;13.588;2023-05-29T19:55:01;5.8;5.7;
56360;PMS7003;42611;51.132;13.588;2023-05-29T20:00:03;6.0;5.7;
56360;PMS7003;42611;51.132;13.588;2023-05-29T20:05:02;5.6;5.2;
56360;PMS7003;42611;51.132;13.588;2023-05-29T20:15:02;6.0;5.8;
56360;PMS7003;42611;51.132;13.588;2023-05-29T20:20:01;6.6;6.4;
56360;PMS7003;42611;51.132;13.588;2023-05-29T20:25:01;6.2;6.2;
56360;PMS7003;42611;51.132;13.588;2023-05-29T20:30:05;6.7;6.7;
56360;PMS7003;42611;51.132;13.588;2023-05-29T20:35:01;7.4;7.0;
56360;PMS7003;42611;51.132;13.588;2023-05-29T20:40:02;7.8;6.8;
56360;PMS7003;42611;51.132;13.588;2023-05-29T20:45:02;8.0;7.0;
56360;PMS7003;42611;51.132;13.588;2023-05-29T21:00:02;7.0;6.4;
56360;PMS7003;42611;51.132;13.588;2023-05-29T21:05:02;6.6;6.6;
56360;PMS7003;42611;51.132;13.588;2023-05-29T21:10:02;6.4;6.1;
56360;PMS7003;42611;51.132;13.588;2023-05-29T21:15:03;6.7;5.9;
56360;PMS7003;42611;51.132;13.588;2023-05-29T21:20:01;6.4;5.6;
56360;PMS7003;42611;51.132;13.588;2023-05-29T21:25:01;7.3;6.3;
56360;PMS7003;42611;51.132;13.588;2023-05-29T21:30:02;7.3;6.4;
56360;PMS7003;42611;51.132;13.588;2023-05-29T21:35:01;7.6;6.8;
56360;PMS7003;42611;51.132;13.588;2023-05-29T21:40:01;7.4;7.2;
56360;PMS7003;42611;51.132;13.588;2023-05-29T21:45:03;7.9;7.4;
56360;PMS7003;42611;51.132;13.588;2023-05-29T21:50:02;7.5;7.2;
56360;PMS7003;42611;51.132;13.588;2023-05-29T21:55:01;7.3;6.8;
56360;PMS7003;42611;51.132;13.588;2023-05-29T22:00:02;6.8;6.4;
56360;PMS7003;42611;51.132;13.588;2023-05-29T22:05:01;6.6;6.0;
56360;PMS7003;42611;51.132;13.588;2023-05-29T22:10:02;5.8;5.4;
56360;PMS7003;42611;51.132;13.588;2023-05-29T22:15:02;6.0;5.0;
56360;PMS7003;42611;51.132;13.588;2023-05-29T22:20:01;5.5;4.7;
56360;PMS7003;42611;51.132;13.588;2023-05-29T22:25:01;5.8;5.0;
56360;PMS7003;42611;51.132;13.588;2023-05-29T22:30:02;5.7;5.1;
56360;PMS7003;42611;51.132;13.588;2023-05-29T22:35:01;6.0;5.4;
56360;PMS7003;42611;51.132;13.588;2023-05-29T22:40:01;5.8;5.8;
56360;PMS7003;42611;51.132;13.588;2023-05-29T22:45:02;6.0;5.7;
56360;PMS7003;42611;51.132;13.588;2023-05-29T22:50:01;6.1;5.5;
56360;PMS7003;42611;51.132;13.588;2023-05-29T22:55:02;6.0;5.3;
56360;PMS7003;42611;51.132;13.588;2023-05-29T23:00:03;5.6;5.0;
56360;PMS7003;42611;51.132;13.588;2023-05-29T23:05:01;5.4;4.6;
56360;PMS7003;42611;51.132;13.588;2023-05-29T23:10:01;5.6;4.9;
56360;PMS7003;42611;51.132;13.588;2023-05-29T23:15:02;5.1;4.6;
56360;PMS7003;42611;51.132;13.588;2023-05-29T23:20:02;4.5;4.0;
56360;PMS7003;42611;51.132;13.588;2023-05-29T23:25:01;4.4;3.9;
56360;PMS7003;42611;51.132;13.588;2023-05-29T23:30:02;4.2;3.9;
56360;PMS7003;42611;51.132;13.588;2023-05-29T23:40:01;4.7;4.6;
56360;PMS7003;42611;51.132;13.588;2023-05-29T23:45:01;5.0;4.9;
56360;PMS7003;42611;51.132;13.588;2023-05-29T23:50:02;5.4;5.2;
56360;PMS7003;42611;51.132;13.588;2023-05-29T23:55:02;5.6;5.4;
